sensor_id;sensor_type;location;lat;lon;timestamp;P1;durP1;ratioP1;P2;durP2;ratioP2
7076;SDS011;3579;48.956;9.154;2023-07-28T00:01:13;1.50;;;1.40;;
7076;SDS011;3579;48.956;9.154;2023-07-28T00:03:39;2.10;;;1.50;;
7076;SDS011;3579;48.956;9.154;2023-07-28T00:06:05;1.67;;;1.43;;
7076;SDS011;3579;48.956;9.154;2023-07-28T00:08:31;1.40;;;1.30;;
7076;SDS011;3579;48.956;9.154;2023-07-28T00:10:57;1.77;;;1.43;;
7076;SDS011;3579;48.956;9.154;2023-07-28T00:13:22;1.93;;;1.40;;
7076;SDS011;3579;48.956;9.154;2023-07-28T00:15:49;1.83;;;1.40;;
7076;SDS011;3579;48.956;9.154;2023-07-28T00:18:15;1.63;;;1.40;;
7076;SDS011;3579;48.956;9.154;2023-07-28T00:20:41;1.50;;;1.40;;
7076;SDS011;3579;48.956;9.154;2023-07-28T00:23:07;2.10;;;1.50;;
7076;SDS011;3579;48.956;9.154;2023-07-28T00:25:33;1.57;;;1.43;;
7076;SDS011;3579;48.956;9.154;2023-07-28T00:27:59;1.70;;;1.50;;
7076;SDS011;3579;48.956;9.154;2023-07-28T00:30:25;1.50;;;1.30;;
7076;SDS011;3579;48.956;9.154;2023-07-28T00:32:52;1.70;;;1.60;;
7076;SDS011;3579;48.956;9.154;2023-07-28T00:35:17;1.60;;;1.50;;
7076;SDS011;3579;48.956;9.154;2023-07-28T00:37:43;1.87;;;1.50;;
7076;SDS011;3579;48.956;9.154;2023-07-28T00:40:10;1.63;;;1.50;;
7076;SDS011;3579;48.956;9.154;2023-07-28T00:42:37;1.50;;;1.40;;
7076;SDS011;3579;48.956;9.154;2023-07-28T00:45:04;1.50;;;1.40;;
7076;SDS011;3579;48.956;9.154;2023-07-28T00:47:30;2.00;;;1.50;;
7076;SDS011;3579;48.956;9.154;2023-07-28T00:49:56;2.13;;;1.47;;
7076;SDS011;3579;48.956;9.154;2023-07-28T00:52:22;1.30;;;1.20;;
7076;SDS011;3579;48.956;9.154;2023-07-28T00:54:48;1.80;;;1.33;;
7076;SDS011;3579;48.956;9.154;2023-07-28T00:57:14;1.60;;;1.40;;
7076;SDS011;3579;48.956;9.154;2023-07-28T00:59:40;1.33;;;1.23;;
7076;SDS011;3579;48.956;9.154;2023-07-28T01:02:06;1.70;;;1.37;;
7076;SDS011;3579;48.956;9.154;2023-07-28T01:04:32;1.80;;;1.20;;
7076;SDS011;3579;48.956;9.154;2023-07-28T01:07:08;1.50;;;1.30;;
7076;SDS011;3579;48.956;9.154;2023-07-28T01:09:40;1.90;;;1.50;;
7076;SDS011;3579;48.956;9.154;2023-07-28T01:12:28;1.57;;;1.47;;
7076;SDS011;3579;48.956;9.154;2023-07-28T01:14:54;1.73;;;1.27;;
7076;SDS011;3579;48.956;9.154;2023-07-28T01:17:20;1.53;;;1.30;;
7076;SDS011;3579;48.956;9.154;2023-07-28T01:19:49;1.57;;;1.47;;
7076;SDS011;3579;48.956;9.154;2023-07-28T01:22:19;1.57;;;1.23;;
7076;SDS011;3579;48.956;9.154;2023-07-28T01:27:51;1.70;;;1.30;;
7076;SDS011;3579;48.956;9.154;2023-07-28T01:30:19;1.40;;;1.27;;
7076;SDS011;3579;48.956;9.154;2023-07-28T01:32:47;1.87;;;1.40;;
7076;SDS011;3579;48.956;9.154;2023-07-28T01:35:14;1.40;;;1.30;;
7076;SDS011;3579;48.956;9.154;2023-07-28T01:37:40;1.40;;;1.30;;
7076;SDS011;3579;48.956;9.154;2023-07-28T01:40:06;1.50;;;1.30;;
7076;SDS011;3579;48.956;9.154;2023-07-28T01:42:32;1.40;;;1.30;;
7076;SDS011;3579;48.956;9.154;2023-07-28T01:44:58;1.27;;;1.17;;
7076;SDS011;3579;48.956;9.154;2023-07-28T01:47:24;1.77;;;1.30;;
7076;SDS011;3579;48.956;9.154;2023-07-28T01:49:50;1.30;;;1.20;;
7076;SDS011;3579;48.956;9.154;2023-07-28T01:52:16;1.53;;;1.30;;
7076;SDS011;3579;48.956;9.154;2023-07-28T01:54:42;1.50;;;1.40;;
7076;SDS011;3579;48.956;9.154;2023-07-28T01:57:08;1.30;;;1.20;;
7076;SDS011;3579;48.956;9.154;2023-07-28T01:59:34;1.50;;;1.40;;
7076;SDS011;3579;48.956;9.154;2023-07-28T02:02:00;1.50;;;1.40;;
7076;SDS011;3579;48.956;9.154;2023-07-28T02:04:27;1.40;;;1.30;;
7076;SDS011;3579;48.956;9.154;2023-07-28T02:06:53;1.40;;;1.20;;
7076;SDS011;3579;48.956;9.154;2023-07-28T02:09:18;1.40;;;1.30;;
7076;SDS011;3579;48.956;9.154;2023-07-28T02:11:44;1.50;;;1.40;;
7076;SDS011;3579;48.956;9.154;2023-07-28T02:14:10;1.40;;;1.30;;
7076;SDS011;3579;48.956;9.154;2023-07-28T02:16:36;1.43;;;1.33;;
7076;SDS011;3579;48.956;9.154;2023-07-28T02:19:02;1.43;;;1.30;;
7076;SDS011;3579;48.956;9.154;2023-07-28T02:21:29;1.40;;;1.23;;
7076;SDS011;3579;48.956;9.154;2023-07-28T02:23:55;1.40;;;1.30;;
7076;SDS011;3579;48.956;9.154;2023-07-28T02:26:21;1.73;;;1.20;;
7076;SDS011;3579;48.956;9.154;2023-07-28T02:28:47;1.67;;;1.37;;
7076;SDS011;3579;48.956;9.154;2023-07-28T02:31:13;1.63;;;1.30;;
7076;SDS011;3579;48.956;9.154;2023-07-28T02:33:39;1.70;;;1.27;;
7076;SDS011;3579;48.956;9.154;2023-07-28T02:36:05;1.40;;;1.30;;
7076;SDS011;3579;48.956;9.154;2023-07-28T02:38:31;1.53;;;1.30;;
7076;SDS011;3579;48.956;9.154;2023-07-28T02:40:57;1.40;;;1.30;;
7076;SDS011;3579;48.956;9.154;2023-07-28T02:43:23;1.70;;;1.40;;
7076;SDS011;3579;48.956;9.154;2023-07-28T02:45:55;1.47;;;1.30;;
7076;SDS011;3579;48.956;9.154;2023-07-28T02:48:22;1.53;;;1.43;;
7076;SDS011;3579;48.956;9.154;2023-07-28T02:50:49;1.30;;;1.20;;
7076;SDS011;3579;48.956;9.154;2023-07-28T02:53:17;1.20;;;1.10;;
7076;SDS011;3579;48.956;9.154;2023-07-28T02:55:43;2.07;;;1.40;;
7076;SDS011;3579;48.956;9.154;2023-07-28T02:58:10;1.40;;;1.30;;
7076;SDS011;3579;48.956;9.154;2023-07-28T03:00:40;1.40;;;1.30;;
7076;SDS011;3579;48.956;9.154;2023-07-28T03:03:07;1.37;;;1.27;;
7076;SDS011;3579;48.956;9.154;2023-07-28T03:05:36;1.40;;;1.30;;
7076;SDS011;3579;48.956;9.154;2023-07-28T03:08:03;1.47;;;1.37;;
7076;SDS011;3579;48.956;9.154;2023-07-28T03:10:29;1.63;;;1.47;;
7076;SDS011;3579;48.956;9.154;2023-07-28T03:12:56;1.60;;;1.37;;
7076;SDS011;3579;48.956;9.154;2023-07-28T03:15:22;1.20;;;1.10;;
7076;SDS011;3579;48.956;9.154;2023-07-28T03:17:48;1.57;;;1.30;;
7076;SDS011;3579;48.956;9.154;2023-07-28T03:20:18;1.70;;;1.10;;
7076;SDS011;3579;48.956;9.154;2023-07-28T03:22:44;1.30;;;1.20;;
7076;SDS011;3579;48.956;9.154;2023-07-28T03:25:11;1.40;;;1.27;;
7076;SDS011;3579;48.956;9.154;2023-07-28T03:27:38;1.87;;;1.27;;
7076;SDS011;3579;48.956;9.154;2023-07-28T03:30:04;1.43;;;1.30;;
7076;SDS011;3579;48.956;9.154;2023-07-28T03:32:32;1.40;;;1.17;;
7076;SDS011;3579;48.956;9.154;2023-07-28T03:34:58;1.50;;;1.40;;
7076;SDS011;3579;48.956;9.154;2023-07-28T03:37:24;2.00;;;1.30;;
7076;SDS011;3579;48.956;9.154;2023-07-28T03:39:50;1.47;;;1.37;;
7076;SDS011;3579;48.956;9.154;2023-07-28T03:42:16;1.33;;;1.20;;
7076;SDS011;3579;48.956;9.154;2023-07-28T03:44:42;1.50;;;1.40;;
7076;SDS011;3579;48.956;9.154;2023-07-28T03:47:08;1.37;;;1.27;;
7076;SDS011;3579;48.956;9.154;2023-07-28T03:49:34;1.50;;;1.30;;
7076;SDS011;3579;48.956;9.154;2023-07-28T03:52:01;1.30;;;1.20;;
7076;SDS011;3579;48.956;9.154;2023-07-28T03:54:27;1.37;;;1.10;;
7076;SDS011;3579;48.956;9.154;2023-07-28T03:56:53;1.27;;;1.17;;
7076;SDS011;3579;48.956;9.154;2023-07-28T03:59:19;1.40;;;1.20;;
7076;SDS011;3579;48.956;9.154;2023-07-28T04:01:45;1.20;;;1.10;;
7076;SDS011;3579;48.956;9.154;2023-07-28T04:04:11;1.50;;;1.10;;
7076;SDS011;3579;48.956;9.154;2023-07-28T04:09:10;1.97;;;1.30;;
7076;SDS011;3579;48.956;9.154;2023-07-28T04:11:38;1.80;;;1.30;;
7076;SDS011;3579;48.956;9.154;2023-07-28T04:14:04;1.50;;;1.40;;
7076;SDS011;3579;48.956;9.154;2023-07-28T04:16:30;1.40;;;1.30;;
7076;SDS011;3579;48.956;9.154;2023-07-28T04:18:56;1.40;;;1.30;;
7076;SDS011;3579;48.956;9.154;2023-07-28T04:21:22;1.40;;;1.30;;
7076;SDS011;3579;48.956;9.154;2023-07-28T04:23:49;1.43;;;1.20;;
7076;SDS011;3579;48.956;9.154;2023-07-28T04:26:16;1.20;;;1.10;;
7076;SDS011;3579;48.956;9.154;2023-07-28T04:28:42;1.20;;;1.10;;
7076;SDS011;3579;48.956;9.154;2023-07-28T04:31:08;1.20;;;1.10;;
7076;SDS011;3579;48.956;9.154;2023-07-28T04:33:34;1.30;;;1.20;;
7076;SDS011;3579;48.956;9.154;2023-07-28T04:36:02;1.60;;;1.30;;
7076;SDS011;3579;48.956;9.154;2023-07-28T04:38:28;1.30;;;1.20;;
7076;SDS011;3579;48.956;9.154;2023-07-28T04:40:54;1.20;;;1.10;;
7076;SDS011;3579;48.956;9.154;2023-07-28T04:43:20;1.30;;;1.20;;
7076;SDS011;3579;48.956;9.154;2023-07-28T04:45:46;2.37;;;1.20;;
7076;SDS011;3579;48.956;9.154;2023-07-28T04:48:12;1.47;;;1.33;;
7076;SDS011;3579;48.956;9.154;2023-07-28T04:50:38;1.43;;;1.30;;
7076;SDS011;3579;48.956;9.154;2023-07-28T04:53:04;1.17;;;1.07;;
7076;SDS011;3579;48.956;9.154;2023-07-28T04:55:30;1.37;;;1.27;;
7076;SDS011;3579;48.956;9.154;2023-07-28T04:57:57;1.30;;;1.20;;
7076;SDS011;3579;48.956;9.154;2023-07-28T05:00:23;1.93;;;1.20;;
7076;SDS011;3579;48.956;9.154;2023-07-28T05:02:49;2.27;;;1.30;;
7076;SDS011;3579;48.956;9.154;2023-07-28T05:05:15;1.50;;;1.40;;
7076;SDS011;3579;48.956;9.154;2023-07-28T05:07:41;1.77;;;1.30;;
7076;SDS011;3579;48.956;9.154;2023-07-28T05:10:07;1.57;;;1.40;;
7076;SDS011;3579;48.956;9.154;2023-07-28T05:12:34;1.30;;;1.20;;
7076;SDS011;3579;48.956;9.154;2023-07-28T05:15:00;1.50;;;1.20;;
7076;SDS011;3579;48.956;9.154;2023-07-28T05:17:26;1.30;;;1.20;;
7076;SDS011;3579;48.956;9.154;2023-07-28T05:19:52;2.00;;;1.30;;
7076;SDS011;3579;48.956;9.154;2023-07-28T05:22:18;1.77;;;1.30;;
7076;SDS011;3579;48.956;9.154;2023-07-28T05:24:45;1.50;;;1.40;;
7076;SDS011;3579;48.956;9.154;2023-07-28T05:27:11;1.30;;;1.20;;
7076;SDS011;3579;48.956;9.154;2023-07-28T05:29:37;1.50;;;1.30;;
7076;SDS011;3579;48.956;9.154;2023-07-28T05:32:03;1.37;;;1.23;;
7076;SDS011;3579;48.956;9.154;2023-07-28T05:34:30;1.73;;;1.50;;
7076;SDS011;3579;48.956;9.154;2023-07-28T05:36:57;1.40;;;1.30;;
7076;SDS011;3579;48.956;9.154;2023-07-28T05:39:23;1.77;;;1.23;;
7076;SDS011;3579;48.956;9.154;2023-07-28T05:41:49;1.83;;;1.47;;
7076;SDS011;3579;48.956;9.154;2023-07-28T05:44:14;1.93;;;1.30;;
7076;SDS011;3579;48.956;9.154;2023-07-28T05:46:40;1.50;;;1.30;;
7076;SDS011;3579;48.956;9.154;2023-07-28T05:49:06;1.87;;;1.40;;
7076;SDS011;3579;48.956;9.154;2023-07-28T05:51:32;2.47;;;1.40;;
7076;SDS011;3579;48.956;9.154;2023-07-28T05:53:59;5.07;;;1.80;;
7076;SDS011;3579;48.956;9.154;2023-07-28T05:56:25;4.57;;;1.83;;
7076;SDS011;3579;48.956;9.154;2023-07-28T05:58:51;8.10;;;1.90;;
7076;SDS011;3579;48.956;9.154;2023-07-28T06:01:17;3.63;;;1.73;;
7076;SDS011;3579;48.956;9.154;2023-07-28T06:03:44;6.33;;;1.63;;
7076;SDS011;3579;48.956;9.154;2023-07-28T06:06:10;3.87;;;1.70;;
7076;SDS011;3579;48.956;9.154;2023-07-28T06:08:36;7.03;;;1.90;;
7076;SDS011;3579;48.956;9.154;2023-07-28T06:11:03;4.53;;;2.30;;
7076;SDS011;3579;48.956;9.154;2023-07-28T06:13:31;3.60;;;1.90;;
7076;SDS011;3579;48.956;9.154;2023-07-28T06:15:57;6.73;;;1.77;;
7076;SDS011;3579;48.956;9.154;2023-07-28T06:18:24;6.73;;;2.00;;
7076;SDS011;3579;48.956;9.154;2023-07-28T06:20:50;4.30;;;1.87;;
7076;SDS011;3579;48.956;9.154;2023-07-28T06:23:16;4.80;;;2.00;;
7076;SDS011;3579;48.956;9.154;2023-07-28T06:25:42;4.03;;;2.20;;
7076;SDS011;3579;48.956;9.154;2023-07-28T06:28:11;5.60;;;1.97;;
7076;SDS011;3579;48.956;9.154;2023-07-28T06:30:38;4.97;;;2.00;;
7076;SDS011;3579;48.956;9.154;2023-07-28T06:33:05;3.57;;;2.20;;
7076;SDS011;3579;48.956;9.154;2023-07-28T06:35:32;3.00;;;1.70;;
7076;SDS011;3579;48.956;9.154;2023-07-28T06:37:59;7.27;;;2.30;;
7076;SDS011;3579;48.956;9.154;2023-07-28T06:40:25;2.83;;;1.87;;
7076;SDS011;3579;48.956;9.154;2023-07-28T06:42:52;3.90;;;2.20;;
7076;SDS011;3579;48.956;9.154;2023-07-28T06:45:18;2.60;;;1.77;;
7076;SDS011;3579;48.956;9.154;2023-07-28T06:47:45;3.50;;;1.90;;
7076;SDS011;3579;48.956;9.154;2023-07-28T06:50:11;5.17;;;2.37;;
7076;SDS011;3579;48.956;9.154;2023-07-28T06:52:38;6.80;;;2.23;;
7076;SDS011;3579;48.956;9.154;2023-07-28T06:55:04;6.47;;;2.10;;
7076;SDS011;3579;48.956;9.154;2023-07-28T06:57:31;8.80;;;2.40;;
7076;SDS011;3579;48.956;9.154;2023-07-28T06:59:57;3.97;;;2.30;;
7076;SDS011;3579;48.956;9.154;2023-07-28T07:02:23;3.97;;;2.10;;
7076;SDS011;3579;48.956;9.154;2023-07-28T07:04:49;5.33;;;2.20;;
7076;SDS011;3579;48.956;9.154;2023-07-28T07:07:15;4.50;;;2.30;;
7076;SDS011;3579;48.956;9.154;2023-07-28T07:09:41;4.17;;;2.20;;
7076;SDS011;3579;48.956;9.154;2023-07-28T07:12:08;4.70;;;2.10;;
7076;SDS011;3579;48.956;9.154;2023-07-28T07:14:34;2.97;;;2.17;;
7076;SDS011;3579;48.956;9.154;2023-07-28T07:17:01;5.23;;;2.33;;
7076;SDS011;3579;48.956;9.154;2023-07-28T07:19:27;3.87;;;2.00;;
7076;SDS011;3579;48.956;9.154;2023-07-28T07:21:54;3.17;;;2.10;;
7076;SDS011;3579;48.956;9.154;2023-07-28T07:24:21;5.57;;;2.23;;
7076;SDS011;3579;48.956;9.154;2023-07-28T07:26:47;4.00;;;2.20;;
7076;SDS011;3579;48.956;9.154;2023-07-28T07:29:13;2.87;;;2.00;;
7076;SDS011;3579;48.956;9.154;2023-07-28T07:31:39;2.10;;;1.90;;
7076;SDS011;3579;48.956;9.154;2023-07-28T07:34:06;4.73;;;2.07;;
7076;SDS011;3579;48.956;9.154;2023-07-28T07:36:32;4.27;;;2.40;;
7076;SDS011;3579;48.956;9.154;2023-07-28T07:38:58;2.80;;;2.20;;
7076;SDS011;3579;48.956;9.154;2023-07-28T07:41:24;3.77;;;2.00;;
7076;SDS011;3579;48.956;9.154;2023-07-28T07:43:54;3.07;;;2.10;;
7076;SDS011;3579;48.956;9.154;2023-07-28T07:46:20;4.13;;;2.03;;
7076;SDS011;3579;48.956;9.154;2023-07-28T07:48:46;2.77;;;1.97;;
7076;SDS011;3579;48.956;9.154;2023-07-28T07:51:12;4.23;;;1.90;;
7076;SDS011;3579;48.956;9.154;2023-07-28T07:53:38;4.70;;;2.00;;
7076;SDS011;3579;48.956;9.154;2023-07-28T07:56:05;3.23;;;2.00;;
7076;SDS011;3579;48.956;9.154;2023-07-28T07:58:33;5.37;;;1.83;;
7076;SDS011;3579;48.956;9.154;2023-07-28T08:00:59;2.30;;;1.90;;
7076;SDS011;3579;48.956;9.154;2023-07-28T08:03:25;2.70;;;1.80;;
7076;SDS011;3579;48.956;9.154;2023-07-28T08:05:52;4.53;;;1.80;;
7076;SDS011;3579;48.956;9.154;2023-07-28T08:08:19;2.73;;;2.00;;
7076;SDS011;3579;48.956;9.154;2023-07-28T08:10:45;2.23;;;1.60;;
7076;SDS011;3579;48.956;9.154;2023-07-28T08:13:12;4.33;;;1.80;;
7076;SDS011;3579;48.956;9.154;2023-07-28T08:15:39;3.90;;;1.73;;
7076;SDS011;3579;48.956;9.154;2023-07-28T08:18:07;4.07;;;1.97;;
7076;SDS011;3579;48.956;9.154;2023-07-28T08:20:33;2.67;;;1.83;;
7076;SDS011;3579;48.956;9.154;2023-07-28T08:22:59;2.30;;;1.70;;
7076;SDS011;3579;48.956;9.154;2023-07-28T08:25:25;2.90;;;1.93;;
7076;SDS011;3579;48.956;9.154;2023-07-28T08:27:51;2.27;;;1.90;;
7076;SDS011;3579;48.956;9.154;2023-07-28T08:30:17;3.10;;;2.17;;
7076;SDS011;3579;48.956;9.154;2023-07-28T08:32:43;3.87;;;1.70;;
7076;SDS011;3579;48.956;9.154;2023-07-28T08:35:09;3.03;;;1.87;;
7076;SDS011;3579;48.956;9.154;2023-07-28T08:37:36;4.90;;;1.90;;
7076;SDS011;3579;48.956;9.154;2023-07-28T08:40:02;2.33;;;1.70;;
7076;SDS011;3579;48.956;9.154;2023-07-28T08:42:30;2.93;;;1.90;;
7076;SDS011;3579;48.956;9.154;2023-07-28T08:45:01;2.50;;;1.80;;
7076;SDS011;3579;48.956;9.154;2023-07-28T08:47:30;2.40;;;1.67;;
7076;SDS011;3579;48.956;9.154;2023-07-28T08:49:58;3.83;;;1.93;;
7076;SDS011;3579;48.956;9.154;2023-07-28T08:52:24;2.80;;;1.60;;
7076;SDS011;3579;48.956;9.154;2023-07-28T08:54:50;3.10;;;1.57;;
7076;SDS011;3579;48.956;9.154;2023-07-28T08:57:17;2.77;;;1.70;;
7076;SDS011;3579;48.956;9.154;2023-07-28T08:59:44;2.80;;;1.67;;
7076;SDS011;3579;48.956;9.154;2023-07-28T09:02:14;3.20;;;1.80;;
7076;SDS011;3579;48.956;9.154;2023-07-28T09:04:42;2.37;;;1.80;;
7076;SDS011;3579;48.956;9.154;2023-07-28T09:07:12;3.77;;;1.73;;
7076;SDS011;3579;48.956;9.154;2023-07-28T09:09:39;4.90;;;1.80;;
7076;SDS011;3579;48.956;9.154;2023-07-28T09:12:09;3.03;;;1.63;;
7076;SDS011;3579;48.956;9.154;2023-07-28T09:14:36;3.70;;;1.80;;
7076;SDS011;3579;48.956;9.154;2023-07-28T09:17:06;3.10;;;1.70;;
7076;SDS011;3579;48.956;9.154;2023-07-28T09:19:33;1.87;;;1.57;;
7076;SDS011;3579;48.956;9.154;2023-07-28T09:22:00;3.80;;;1.73;;
7076;SDS011;3579;48.956;9.154;2023-07-28T09:24:33;2.67;;;2.00;;
7076;SDS011;3579;48.956;9.154;2023-07-28T09:26:59;6.13;;;1.70;;
7076;SDS011;3579;48.956;9.154;2023-07-28T09:29:26;2.00;;;1.70;;
7076;SDS011;3579;48.956;9.154;2023-07-28T09:32:03;3.50;;;1.80;;
7076;SDS011;3579;48.956;9.154;2023-07-28T09:34:30;5.10;;;2.00;;
7076;SDS011;3579;48.956;9.154;2023-07-28T09:36:58;1.87;;;1.70;;
7076;SDS011;3579;48.956;9.154;2023-07-28T09:39:26;3.23;;;1.80;;
7076;SDS011;3579;48.956;9.154;2023-07-28T09:41:53;1.77;;;1.60;;
7076;SDS011;3579;48.956;9.154;2023-07-28T09:44:24;3.23;;;1.90;;
7076;SDS011;3579;48.956;9.154;2023-07-28T09:46:51;2.50;;;1.77;;
7076;SDS011;3579;48.956;9.154;2023-07-28T09:49:27;4.73;;;1.70;;
7076;SDS011;3579;48.956;9.154;2023-07-28T09:51:54;1.93;;;1.77;;
7076;SDS011;3579;48.956;9.154;2023-07-28T09:54:24;1.97;;;1.60;;
7076;SDS011;3579;48.956;9.154;2023-07-28T09:56:55;3.90;;;1.90;;
7076;SDS011;3579;48.956;9.154;2023-07-28T09:59:24;4.53;;;1.90;;
7076;SDS011;3579;48.956;9.154;2023-07-28T10:02:04;2.83;;;1.87;;
7076;SDS011;3579;48.956;9.154;2023-07-28T10:04:32;4.30;;;1.80;;
7076;SDS011;3579;48.956;9.154;2023-07-28T10:06:58;3.23;;;1.80;;
7076;SDS011;3579;48.956;9.154;2023-07-28T10:09:25;6.00;;;1.83;;
7076;SDS011;3579;48.956;9.154;2023-07-28T10:11:52;3.30;;;1.60;;
7076;SDS011;3579;48.956;9.154;2023-07-28T10:14:29;4.00;;;1.80;;
7076;SDS011;3579;48.956;9.154;2023-07-28T10:17:03;1.70;;;1.60;;
7076;SDS011;3579;48.956;9.154;2023-07-28T10:19:34;3.73;;;1.67;;
7076;SDS011;3579;48.956;9.154;2023-07-28T10:22:01;3.97;;;2.00;;
7076;SDS011;3579;48.956;9.154;2023-07-28T10:27:31;3.60;;;1.70;;
7076;SDS011;3579;48.956;9.154;2023-07-28T10:30:02;2.80;;;1.90;;
7076;SDS011;3579;48.956;9.154;2023-07-28T10:32:42;3.40;;;1.83;;
7076;SDS011;3579;48.956;9.154;2023-07-28T10:35:21;3.37;;;1.90;;
7076;SDS011;3579;48.956;9.154;2023-07-28T10:37:50;3.77;;;1.90;;
7076;SDS011;3579;48.956;9.154;2023-07-28T10:40:23;6.23;;;1.97;;
7076;SDS011;3579;48.956;9.154;2023-07-28T10:43:04;2.00;;;1.70;;
7076;SDS011;3579;48.956;9.154;2023-07-28T10:45:31;2.47;;;1.60;;
7076;SDS011;3579;48.956;9.154;2023-07-28T10:47:58;3.20;;;1.50;;
7076;SDS011;3579;48.956;9.154;2023-07-28T10:50:27;3.00;;;1.80;;
7076;SDS011;3579;48.956;9.154;2023-07-28T10:52:54;3.07;;;1.90;;
7076;SDS011;3579;48.956;9.154;2023-07-28T10:55:21;3.67;;;1.50;;
7076;SDS011;3579;48.956;9.154;2023-07-28T10:57:49;4.50;;;1.93;;
7076;SDS011;3579;48.956;9.154;2023-07-28T11:00:16;3.93;;;1.70;;
7076;SDS011;3579;48.956;9.154;2023-07-28T11:02:44;4.10;;;1.73;;
7076;SDS011;3579;48.956;9.154;2023-07-28T11:05:12;2.90;;;1.60;;
7076;SDS011;3579;48.956;9.154;2023-07-28T11:07:53;1.67;;;1.57;;
7076;SDS011;3579;48.956;9.154;2023-07-28T11:10:21;2.00;;;1.63;;
7076;SDS011;3579;48.956;9.154;2023-07-28T11:12:48;2.47;;;1.60;;
7076;SDS011;3579;48.956;9.154;2023-07-28T11:15:16;3.73;;;1.80;;
7076;SDS011;3579;48.956;9.154;2023-07-28T11:17:46;3.07;;;1.50;;
7076;SDS011;3579;48.956;9.154;2023-07-28T11:22:51;3.43;;;1.73;;
7076;SDS011;3579;48.956;9.154;2023-07-28T11:25:18;2.90;;;1.60;;
7076;SDS011;3579;48.956;9.154;2023-07-28T11:27:46;1.83;;;1.43;;
7076;SDS011;3579;48.956;9.154;2023-07-28T11:30:16;3.13;;;1.90;;
7076;SDS011;3579;48.956;9.154;2023-07-28T11:32:44;2.27;;;1.67;;
7076;SDS011;3579;48.956;9.154;2023-07-28T11:35:15;3.57;;;1.60;;
7076;SDS011;3579;48.956;9.154;2023-07-28T11:37:43;2.13;;;1.70;;
7076;SDS011;3579;48.956;9.154;2023-07-28T11:40:11;2.27;;;1.63;;
7076;SDS011;3579;48.956;9.154;2023-07-28T11:42:40;2.50;;;1.60;;
7076;SDS011;3579;48.956;9.154;2023-07-28T11:45:10;2.47;;;1.50;;
7076;SDS011;3579;48.956;9.154;2023-07-28T11:47:38;3.40;;;1.63;;
7076;SDS011;3579;48.956;9.154;2023-07-28T11:50:04;1.70;;;1.40;;
7076;SDS011;3579;48.956;9.154;2023-07-28T11:52:31;2.10;;;1.90;;
7076;SDS011;3579;48.956;9.154;2023-07-28T11:55:01;3.43;;;1.70;;
7076;SDS011;3579;48.956;9.154;2023-07-28T11:57:30;4.13;;;1.60;;
7076;SDS011;3579;48.956;9.154;2023-07-28T11:59:56;2.47;;;1.80;;
7076;SDS011;3579;48.956;9.154;2023-07-28T12:02:26;3.23;;;1.60;;
7076;SDS011;3579;48.956;9.154;2023-07-28T12:04:54;3.23;;;1.70;;
7076;SDS011;3579;48.956;9.154;2023-07-28T12:07:31;2.73;;;1.67;;
7076;SDS011;3579;48.956;9.154;2023-07-28T12:10:05;2.30;;;1.73;;
7076;SDS011;3579;48.956;9.154;2023-07-28T12:12:41;2.13;;;1.80;;
7076;SDS011;3579;48.956;9.154;2023-07-28T12:18:01;3.20;;;1.70;;
7076;SDS011;3579;48.956;9.154;2023-07-28T12:20:36;1.97;;;1.70;;
7076;SDS011;3579;48.956;9.154;2023-07-28T12:23:04;2.80;;;1.80;;
7076;SDS011;3579;48.956;9.154;2023-07-28T12:25:31;2.13;;;1.87;;
7076;SDS011;3579;48.956;9.154;2023-07-28T12:27:57;2.03;;;1.60;;
7076;SDS011;3579;48.956;9.154;2023-07-28T12:30:24;3.37;;;1.80;;
7076;SDS011;3579;48.956;9.154;2023-07-28T12:32:50;3.13;;;1.60;;
7076;SDS011;3579;48.956;9.154;2023-07-28T12:35:16;3.03;;;1.93;;
7076;SDS011;3579;48.956;9.154;2023-07-28T12:37:42;3.10;;;2.10;;
7076;SDS011;3579;48.956;9.154;2023-07-28T12:40:09;3.63;;;1.87;;
7076;SDS011;3579;48.956;9.154;2023-07-28T12:42:36;4.23;;;2.03;;
7076;SDS011;3579;48.956;9.154;2023-07-28T12:45:02;3.97;;;1.97;;
7076;SDS011;3579;48.956;9.154;2023-07-28T12:47:30;3.20;;;2.10;;
7076;SDS011;3579;48.956;9.154;2023-07-28T12:49:56;3.17;;;2.00;;
7076;SDS011;3579;48.956;9.154;2023-07-28T12:52:22;3.73;;;2.03;;
7076;SDS011;3579;48.956;9.154;2023-07-28T12:54:48;3.00;;;1.90;;
7076;SDS011;3579;48.956;9.154;2023-07-28T12:57:14;2.50;;;1.60;;
7076;SDS011;3579;48.956;9.154;2023-07-28T12:59:40;4.20;;;2.00;;
7076;SDS011;3579;48.956;9.154;2023-07-28T13:02:06;2.33;;;1.70;;
7076;SDS011;3579;48.956;9.154;2023-07-28T13:04:32;3.33;;;2.10;;
7076;SDS011;3579;48.956;9.154;2023-07-28T13:06:59;4.50;;;1.90;;
7076;SDS011;3579;48.956;9.154;2023-07-28T13:09:25;3.90;;;2.03;;
7076;SDS011;3579;48.956;9.154;2023-07-28T13:11:51;1.93;;;1.70;;
7076;SDS011;3579;48.956;9.154;2023-07-28T13:14:17;4.23;;;1.90;;
7076;SDS011;3579;48.956;9.154;2023-07-28T13:16:43;5.53;;;2.00;;
7076;SDS011;3579;48.956;9.154;2023-07-28T13:19:10;3.90;;;2.30;;
7076;SDS011;3579;48.956;9.154;2023-07-28T13:21:36;2.77;;;2.00;;
7076;SDS011;3579;48.956;9.154;2023-07-28T13:24:02;5.00;;;2.27;;
7076;SDS011;3579;48.956;9.154;2023-07-28T13:26:28;3.63;;;2.10;;
7076;SDS011;3579;48.956;9.154;2023-07-28T13:28:54;2.90;;;1.80;;
7076;SDS011;3579;48.956;9.154;2023-07-28T13:31:23;3.67;;;1.90;;
7076;SDS011;3579;48.956;9.154;2023-07-28T13:33:49;3.50;;;2.20;;
7076;SDS011;3579;48.956;9.154;2023-07-28T13:36:16;4.03;;;2.27;;
7076;SDS011;3579;48.956;9.154;2023-07-28T13:38:42;4.17;;;2.20;;
7076;SDS011;3579;48.956;9.154;2023-07-28T13:41:08;5.53;;;2.17;;
7076;SDS011;3579;48.956;9.154;2023-07-28T13:43:34;4.07;;;2.03;;
7076;SDS011;3579;48.956;9.154;2023-07-28T13:46:02;2.97;;;2.07;;
7076;SDS011;3579;48.956;9.154;2023-07-28T13:48:30;5.20;;;2.17;;
7076;SDS011;3579;48.956;9.154;2023-07-28T13:50:57;4.20;;;2.10;;
7076;SDS011;3579;48.956;9.154;2023-07-28T13:53:23;3.60;;;1.90;;
7076;SDS011;3579;48.956;9.154;2023-07-28T13:55:50;2.20;;;1.80;;
7076;SDS011;3579;48.956;9.154;2023-07-28T13:58:17;4.10;;;1.80;;
7076;SDS011;3579;48.956;9.154;2023-07-28T14:00:43;4.07;;;2.20;;
7076;SDS011;3579;48.956;9.154;2023-07-28T14:03:10;3.93;;;1.90;;
7076;SDS011;3579;48.956;9.154;2023-07-28T14:05:36;5.63;;;2.10;;
7076;SDS011;3579;48.956;9.154;2023-07-28T14:08:02;3.87;;;1.87;;
7076;SDS011;3579;48.956;9.154;2023-07-28T14:10:28;3.27;;;1.83;;
7076;SDS011;3579;48.956;9.154;2023-07-28T14:12:54;2.30;;;1.67;;
7076;SDS011;3579;48.956;9.154;2023-07-28T14:15:20;3.80;;;1.90;;
7076;SDS011;3579;48.956;9.154;2023-07-28T14:17:46;2.57;;;1.90;;
7076;SDS011;3579;48.956;9.154;2023-07-28T14:20:12;2.83;;;1.90;;
7076;SDS011;3579;48.956;9.154;2023-07-28T14:22:39;2.63;;;1.90;;
7076;SDS011;3579;48.956;9.154;2023-07-28T14:25:05;3.53;;;1.97;;
7076;SDS011;3579;48.956;9.154;2023-07-28T14:27:31;3.60;;;1.90;;
7076;SDS011;3579;48.956;9.154;2023-07-28T14:29:57;3.17;;;1.97;;
7076;SDS011;3579;48.956;9.154;2023-07-28T14:32:23;2.47;;;1.87;;
7076;SDS011;3579;48.956;9.154;2023-07-28T14:34:49;3.10;;;2.00;;
7076;SDS011;3579;48.956;9.154;2023-07-28T14:37:15;3.07;;;2.10;;
7076;SDS011;3579;48.956;9.154;2023-07-28T14:39:42;3.07;;;2.10;;
7076;SDS011;3579;48.956;9.154;2023-07-28T14:42:08;3.13;;;1.80;;
7076;SDS011;3579;48.956;9.154;2023-07-28T14:44:34;3.50;;;2.00;;
7076;SDS011;3579;48.956;9.154;2023-07-28T14:47:00;4.53;;;1.90;;
7076;SDS011;3579;48.956;9.154;2023-07-28T14:49:26;2.67;;;1.80;;
7076;SDS011;3579;48.956;9.154;2023-07-28T14:51:54;2.70;;;1.83;;
7076;SDS011;3579;48.956;9.154;2023-07-28T14:54:20;2.57;;;1.90;;
7076;SDS011;3579;48.956;9.154;2023-07-28T14:56:46;3.13;;;1.70;;
7076;SDS011;3579;48.956;9.154;2023-07-28T14:59:12;2.83;;;2.00;;
7076;SDS011;3579;48.956;9.154;2023-07-28T15:01:38;2.13;;;1.93;;
7076;SDS011;3579;48.956;9.154;2023-07-28T15:04:04;3.57;;;2.13;;
7076;SDS011;3579;48.956;9.154;2023-07-28T15:06:30;3.43;;;1.90;;
7076;SDS011;3579;48.956;9.154;2023-07-28T15:08:58;3.23;;;2.07;;
7076;SDS011;3579;48.956;9.154;2023-07-28T15:11:24;2.33;;;1.80;;
7076;SDS011;3579;48.956;9.154;2023-07-28T15:13:50;2.37;;;1.90;;
7076;SDS011;3579;48.956;9.154;2023-07-28T15:16:16;3.70;;;2.20;;
7076;SDS011;3579;48.956;9.154;2023-07-28T15:18:42;2.83;;;2.00;;
7076;SDS011;3579;48.956;9.154;2023-07-28T15:21:08;3.70;;;2.03;;
7076;SDS011;3579;48.956;9.154;2023-07-28T15:23:34;2.87;;;2.00;;
7076;SDS011;3579;48.956;9.154;2023-07-28T15:26:00;5.20;;;2.30;;
7076;SDS011;3579;48.956;9.154;2023-07-28T15:28:27;4.53;;;2.53;;